CheckWX is a tool to help pilots better visualize weather data.  It is not intended as a substitute for an official pre-flight weather briefing.

23:29:43 UTC

KCWI METAR
Clinton Municipal Airport
Clinton, Iowa, USA
Current

7 hours ago

KCWI 161656Z AUTO 15008KT 6SM HZ CLR 02/M01 A3036 RMK AO2 SLP294 T00221006 FZRANO
Observed
Nov-16 @ 16:56 UTC
Wind
  • 150° at 8 KTS
Visibility
6 SM
Flight Rules
VFR
Conditions
Haze
Cloud Levels
  • Clear skies
Temperature
C / 36°F
Dewpoint
-1°C / 30°F
Humidity
81%
Altimeter
30.36" Hg
Pressure
1028.12 hPa
Previous

9 hours ago

KCWI 161435Z AUTO 11008KT 3SM BR CLR M02/M02 A3038 RMK AO2 FZRANO
Observed
Nov-16 @ 14:35 UTC
Wind
  • 110° at 8 KTS
Visibility
3 SM
Flight Rules
MVFR
Conditions
Mist
Cloud Levels
  • Clear skies
Temperature
-2°C / 28°F
Dewpoint
-2°C / 28°F
Humidity
100%
Altimeter
30.38" Hg
Pressure
1028.82 hPa
Previous

13 hours ago

KCWI 161056Z AUTO 08005KT 3SM BR CLR M06/M06 A3039 RMK AO2 SLP304 T10561061 FZRANO
Observed
Nov-16 @ 10:56 UTC
Wind
  • 080° at 5 KTS
Visibility
3 SM
Flight Rules
MVFR
Conditions
Mist
Cloud Levels
  • Clear skies
Temperature
-6°C / 21°F
Dewpoint
-6°C / 21°F
Humidity
100%
Altimeter
30.39" Hg
Pressure
1029.12 hPa